Weather at Tatalina LRRS Airport

Public forecast

Using degrees Fahrenheit for public forecast. Weather courtesy of forecast.io.

Current aviation weather report (METAR) for Tatalina LRRS Airport

Retrieved 2021/06/13 16:55 UTC (59 minutes ago):

PATL 131655Z AUTO VRB01KT 10SM CLR 14/09 A2991

Closest aviation forecast (TAF) to Tatalina LRRS Airport

Closest forecast is McGrath Airport, 10.7 nm (19.9 km) ENE. Retrieved 2021/06/13 12:22 UTC (6 hours ago):

TAF PAMC 131120Z 1312/1412 VRB04KT P6SM SCT050 SCT120 AMD NOT SKED